sensor_id;sensor_type;location;lat;lon;timestamp;P1;durP1;ratioP1;P2;durP2;ratioP2
29504;SDS011;16452;54.174;12.092;2022-11-15T00:00:50;99.20;;;50.40;;
29504;SDS011;16452;54.174;12.092;2022-11-15T00:03:25;98.22;;;48.88;;
29504;SDS011;16452;54.174;12.092;2022-11-15T00:05:52;94.15;;;48.15;;
29504;SDS011;16452;54.174;12.092;2022-11-15T00:08:18;98.60;;;49.05;;
29504;SDS011;16452;54.174;12.092;2022-11-15T00:10:54;92.22;;;46.60;;
29504;SDS011;16452;54.174;12.092;2022-11-15T00:13:24;90.95;;;47.35;;
29504;SDS011;16452;54.174;12.092;2022-11-15T00:15:50;92.15;;;47.05;;
29504;SDS011;16452;54.174;12.092;2022-11-15T00:18:17;92.13;;;47.00;;
29504;SDS011;16452;54.174;12.092;2022-11-15T00:20:43;90.65;;;47.17;;
29504;SDS011;16452;54.174;12.092;2022-11-15T00:23:09;91.45;;;47.63;;
29504;SDS011;16452;54.174;12.092;2022-11-15T00:25:35;88.72;;;48.28;;
29504;SDS011;16452;54.174;12.092;2022-11-15T00:28:01;89.88;;;47.05;;
29504;SDS011;16452;54.174;12.092;2022-11-15T00:30:27;88.70;;;46.35;;
29504;SDS011;16452;54.174;12.092;2022-11-15T00:32:53;90.50;;;46.42;;
29504;SDS011;16452;54.174;12.092;2022-11-15T00:35:19;92.10;;;46.95;;
29504;SDS011;16452;54.174;12.092;2022-11-15T00:37:45;89.28;;;46.67;;
29504;SDS011;16452;54.174;12.092;2022-11-15T00:40:12;86.07;;;46.92;;
29504;SDS011;16452;54.174;12.092;2022-11-15T00:42:39;85.88;;;46.58;;
29504;SDS011;16452;54.174;12.092;2022-11-15T00:45:06;82.15;;;44.65;;
29504;SDS011;16452;54.174;12.092;2022-11-15T00:47:33;82.93;;;43.72;;
29504;SDS011;16452;54.174;12.092;2022-11-15T00:49:58;81.35;;;44.58;;
29504;SDS011;16452;54.174;12.092;2022-11-15T00:52:24;84.63;;;45.70;;
29504;SDS011;16452;54.174;12.092;2022-11-15T00:54:50;91.28;;;45.53;;
29504;SDS011;16452;54.174;12.092;2022-11-15T00:57:15;84.85;;;45.58;;
29504;SDS011;16452;54.174;12.092;2022-11-15T00:59:41;84.60;;;44.70;;
29504;SDS011;16452;54.174;12.092;2022-11-15T01:02:07;76.47;;;43.58;;
29504;SDS011;16452;54.174;12.092;2022-11-15T01:04:32;85.80;;;44.65;;
29504;SDS011;16452;54.174;12.092;2022-11-15T01:06:58;77.70;;;44.17;;
29504;SDS011;16452;54.174;12.092;2022-11-15T01:09:24;87.35;;;44.33;;
29504;SDS011;16452;54.174;12.092;2022-11-15T01:11:50;87.97;;;45.53;;
29504;SDS011;16452;54.174;12.092;2022-11-15T01:14:15;80.50;;;43.95;;
29504;SDS011;16452;54.174;12.092;2022-11-15T01:16:41;75.70;;;43.33;;
29504;SDS011;16452;54.174;12.092;2022-11-15T01:19:07;77.03;;;44.17;;
29504;SDS011;16452;54.174;12.092;2022-11-15T01:21:32;83.38;;;45.55;;
29504;SDS011;16452;54.174;12.092;2022-11-15T01:23:58;79.47;;;44.47;;
29504;SDS011;16452;54.174;12.092;2022-11-15T01:26:24;83.28;;;44.40;;
29504;SDS011;16452;54.174;12.092;2022-11-15T01:28:50;78.70;;;43.38;;
29504;SDS011;16452;54.174;12.092;2022-11-15T01:31:16;80.22;;;44.67;;
29504;SDS011;16452;54.174;12.092;2022-11-15T01:33:45;83.65;;;45.50;;
29504;SDS011;16452;54.174;12.092;2022-11-15T01:36:13;79.05;;;43.83;;
29504;SDS011;16452;54.174;12.092;2022-11-15T01:38:43;79.13;;;43.83;;
29504;SDS011;16452;54.174;12.092;2022-11-15T01:41:16;83.10;;;44.30;;
29504;SDS011;16452;54.174;12.092;2022-11-15T01:43:45;80.13;;;44.50;;
29504;SDS011;16452;54.174;12.092;2022-11-15T01:46:33;77.90;;;43.80;;
29504;SDS011;16452;54.174;12.092;2022-11-15T01:49:02;84.55;;;44.97;;
29504;SDS011;16452;54.174;12.092;2022-11-15T01:51:37;77.47;;;43.50;;
29504;SDS011;16452;54.174;12.092;2022-11-15T01:54:07;77.63;;;43.00;;
29504;SDS011;16452;54.174;12.092;2022-11-15T01:56:41;78.88;;;43.28;;
29504;SDS011;16452;54.174;12.092;2022-11-15T01:59:15;73.93;;;42.30;;
29504;SDS011;16452;54.174;12.092;2022-11-15T02:01:42;79.85;;;43.60;;
29504;SDS011;16452;54.174;12.092;2022-11-15T02:04:12;78.38;;;42.30;;
29504;SDS011;16452;54.174;12.092;2022-11-15T02:06:42;80.53;;;44.35;;
29504;SDS011;16452;54.174;12.092;2022-11-15T02:09:09;78.90;;;43.53;;
29504;SDS011;16452;54.174;12.092;2022-11-15T02:11:36;77.47;;;42.22;;
29504;SDS011;16452;54.174;12.092;2022-11-15T02:14:02;76.32;;;43.55;;
29504;SDS011;16452;54.174;12.092;2022-11-15T02:30:37;73.65;;;41.63;;
29504;SDS011;16452;54.174;12.092;2022-11-15T02:33:26;73.25;;;41.50;;
29504;SDS011;16452;54.174;12.092;2022-11-15T02:36:00;76.35;;;41.95;;
29504;SDS011;16452;54.174;12.092;2022-11-15T02:38:32;74.45;;;42.00;;
29504;SDS011;16452;54.174;12.092;2022-11-15T02:41:16;77.05;;;42.05;;
29504;SDS011;16452;54.174;12.092;2022-11-15T02:44:23;72.05;;;40.92;;
29504;SDS011;16452;54.174;12.092;2022-11-15T02:47:03;69.80;;;41.15;;
29504;SDS011;16452;54.174;12.092;2022-11-15T02:49:40;73.35;;;40.60;;
29504;SDS011;16452;54.174;12.092;2022-11-15T02:52:33;67.82;;;39.92;;
29504;SDS011;16452;54.174;12.092;2022-11-15T02:54:59;71.88;;;41.60;;
29504;SDS011;16452;54.174;12.092;2022-11-15T03:00:18;72.85;;;40.53;;
29504;SDS011;16452;54.174;12.092;2022-11-15T03:02:53;73.07;;;41.55;;
29504;SDS011;16452;54.174;12.092;2022-11-15T03:05:53;70.45;;;41.00;;
29504;SDS011;16452;54.174;12.092;2022-11-15T03:16:46;71.20;;;41.75;;
29504;SDS011;16452;54.174;12.092;2022-11-15T03:19:56;70.32;;;40.58;;
29504;SDS011;16452;54.174;12.092;2022-11-15T03:22:23;72.85;;;42.17;;
29504;SDS011;16452;54.174;12.092;2022-11-15T03:24:53;70.22;;;40.35;;
29504;SDS011;16452;54.174;12.092;2022-11-15T03:27:25;71.97;;;40.83;;
29504;SDS011;16452;54.174;12.092;2022-11-15T03:29:57;75.13;;;41.38;;
29504;SDS011;16452;54.174;12.092;2022-11-15T03:32:29;73.97;;;42.40;;
29504;SDS011;16452;54.174;12.092;2022-11-15T03:35:04;73.22;;;42.53;;
29504;SDS011;16452;54.174;12.092;2022-11-15T03:37:40;71.20;;;40.00;;
29504;SDS011;16452;54.174;12.092;2022-11-15T03:40:35;68.30;;;40.67;;
29504;SDS011;16452;54.174;12.092;2022-11-15T03:43:10;72.47;;;42.33;;
29504;SDS011;16452;54.174;12.092;2022-11-15T03:48:34;73.22;;;41.50;;
29504;SDS011;16452;54.174;12.092;2022-11-15T03:51:06;76.00;;;41.03;;
29504;SDS011;16452;54.174;12.092;2022-11-15T03:53:35;68.18;;;40.45;;
29504;SDS011;16452;54.174;12.092;2022-11-15T03:56:01;75.15;;;40.95;;
29504;SDS011;16452;54.174;12.092;2022-11-15T03:58:27;73.07;;;40.40;;
29504;SDS011;16452;54.174;12.092;2022-11-15T04:00:52;72.28;;;41.22;;
29504;SDS011;16452;54.174;12.092;2022-11-15T04:03:18;68.82;;;39.63;;
29504;SDS011;16452;54.174;12.092;2022-11-15T04:05:44;71.63;;;39.90;;
29504;SDS011;16452;54.174;12.092;2022-11-15T04:08:10;69.00;;;40.42;;
29504;SDS011;16452;54.174;12.092;2022-11-15T04:10:35;69.32;;;39.65;;
29504;SDS011;16452;54.174;12.092;2022-11-15T04:13:02;69.05;;;40.65;;
29504;SDS011;16452;54.174;12.092;2022-11-15T04:15:28;68.80;;;40.35;;
29504;SDS011;16452;54.174;12.092;2022-11-15T04:17:55;72.03;;;41.60;;
29504;SDS011;16452;54.174;12.092;2022-11-15T04:20:23;75.72;;;42.28;;
29504;SDS011;16452;54.174;12.092;2022-11-15T04:23:16;68.22;;;39.92;;
29504;SDS011;16452;54.174;12.092;2022-11-15T04:26:14;71.47;;;40.13;;
29504;SDS011;16452;54.174;12.092;2022-11-15T04:28:43;73.93;;;40.58;;
29504;SDS011;16452;54.174;12.092;2022-11-15T04:31:28;70.72;;;40.50;;
29504;SDS011;16452;54.174;12.092;2022-11-15T04:33:54;76.25;;;44.45;;
29504;SDS011;16452;54.174;12.092;2022-11-15T04:36:20;72.35;;;42.33;;
29504;SDS011;16452;54.174;12.092;2022-11-15T04:39:05;70.38;;;41.00;;
29504;SDS011;16452;54.174;12.092;2022-11-15T04:41:31;69.32;;;39.30;;
29504;SDS011;16452;54.174;12.092;2022-11-15T04:43:57;71.07;;;40.30;;
29504;SDS011;16452;54.174;12.092;2022-11-15T04:46:23;71.25;;;40.42;;
29504;SDS011;16452;54.174;12.092;2022-11-15T04:48:50;72.38;;;41.13;;
29504;SDS011;16452;54.174;12.092;2022-11-15T04:51:17;76.45;;;40.65;;
29504;SDS011;16452;54.174;12.092;2022-11-15T04:53:43;74.35;;;40.70;;
29504;SDS011;16452;54.174;12.092;2022-11-15T04:56:09;68.22;;;39.25;;
29504;SDS011;16452;54.174;12.092;2022-11-15T04:58:35;70.30;;;39.90;;
29504;SDS011;16452;54.174;12.092;2022-11-15T05:01:08;72.50;;;40.72;;
29504;SDS011;16452;54.174;12.092;2022-11-15T05:03:39;77.22;;;41.00;;
29504;SDS011;16452;54.174;12.092;2022-11-15T05:06:25;68.72;;;40.03;;
29504;SDS011;16452;54.174;12.092;2022-11-15T05:08:51;74.47;;;42.28;;
29504;SDS011;16452;54.174;12.092;2022-11-15T05:11:17;76.22;;;42.05;;
29504;SDS011;16452;54.174;12.092;2022-11-15T05:13:42;73.57;;;41.72;;
29504;SDS011;16452;54.174;12.092;2022-11-15T05:16:08;77.78;;;43.78;;
29504;SDS011;16452;54.174;12.092;2022-11-15T05:18:34;84.95;;;43.35;;
29504;SDS011;16452;54.174;12.092;2022-11-15T05:21:07;79.13;;;42.03;;
29504;SDS011;16452;54.174;12.092;2022-11-15T05:23:35;76.00;;;41.78;;
29504;SDS011;16452;54.174;12.092;2022-11-15T05:26:02;79.53;;;42.55;;
29504;SDS011;16452;54.174;12.092;2022-11-15T05:28:29;75.57;;;43.33;;
29504;SDS011;16452;54.174;12.092;2022-11-15T05:33:33;75.07;;;41.80;;
29504;SDS011;16452;54.174;12.092;2022-11-15T05:36:02;80.60;;;43.40;;
29504;SDS011;16452;54.174;12.092;2022-11-15T05:38:59;84.68;;;44.83;;
29504;SDS011;16452;54.174;12.092;2022-11-15T05:41:30;78.68;;;41.92;;
29504;SDS011;16452;54.174;12.092;2022-11-15T05:44:00;78.30;;;42.10;;
29504;SDS011;16452;54.174;12.092;2022-11-15T05:46:29;72.03;;;40.53;;
29504;SDS011;16452;54.174;12.092;2022-11-15T05:48:55;66.43;;;38.95;;
29504;SDS011;16452;54.174;12.092;2022-11-15T05:51:22;71.72;;;39.42;;
29504;SDS011;16452;54.174;12.092;2022-11-15T05:53:49;68.75;;;38.63;;
29504;SDS011;16452;54.174;12.092;2022-11-15T05:56:16;64.82;;;37.83;;
29504;SDS011;16452;54.174;12.092;2022-11-15T05:58:42;67.68;;;39.17;;
29504;SDS011;16452;54.174;12.092;2022-11-15T06:01:08;70.18;;;40.03;;
29504;SDS011;16452;54.174;12.092;2022-11-15T06:03:34;70.93;;;40.30;;
29504;SDS011;16452;54.174;12.092;2022-11-15T06:06:00;74.32;;;40.78;;
29504;SDS011;16452;54.174;12.092;2022-11-15T06:08:26;64.07;;;39.42;;
29504;SDS011;16452;54.174;12.092;2022-11-15T06:10:52;66.90;;;40.45;;
29504;SDS011;16452;54.174;12.092;2022-11-15T06:13:17;69.03;;;39.65;;
29504;SDS011;16452;54.174;12.092;2022-11-15T06:15:43;67.53;;;40.13;;
29504;SDS011;16452;54.174;12.092;2022-11-15T06:18:09;72.32;;;41.05;;
29504;SDS011;16452;54.174;12.092;2022-11-15T06:20:35;66.78;;;39.20;;
29504;SDS011;16452;54.174;12.092;2022-11-15T06:23:02;67.20;;;39.30;;
29504;SDS011;16452;54.174;12.092;2022-11-15T06:25:29;66.05;;;39.33;;
29504;SDS011;16452;54.174;12.092;2022-11-15T06:27:58;65.88;;;39.28;;
29504;SDS011;16452;54.174;12.092;2022-11-15T06:30:24;70.68;;;39.45;;
29504;SDS011;16452;54.174;12.092;2022-11-15T06:32:51;68.05;;;40.05;;
29504;SDS011;16452;54.174;12.092;2022-11-15T06:35:24;67.50;;;38.55;;
29504;SDS011;16452;54.174;12.092;2022-11-15T06:37:50;66.93;;;37.55;;
29504;SDS011;16452;54.174;12.092;2022-11-15T06:40:15;70.10;;;39.35;;
29504;SDS011;16452;54.174;12.092;2022-11-15T06:42:41;67.70;;;38.58;;
29504;SDS011;16452;54.174;12.092;2022-11-15T06:45:07;65.55;;;39.47;;
29504;SDS011;16452;54.174;12.092;2022-11-15T06:47:33;63.80;;;38.08;;
29504;SDS011;16452;54.174;12.092;2022-11-15T06:49:59;64.95;;;36.53;;
29504;SDS011;16452;54.174;12.092;2022-11-15T06:52:24;65.63;;;37.47;;
29504;SDS011;16452;54.174;12.092;2022-11-15T06:54:50;68.80;;;39.63;;
29504;SDS011;16452;54.174;12.092;2022-11-15T06:57:16;61.85;;;38.15;;
29504;SDS011;16452;54.174;12.092;2022-11-15T06:59:42;66.20;;;38.05;;
29504;SDS011;16452;54.174;12.092;2022-11-15T07:02:11;63.80;;;38.45;;
29504;SDS011;16452;54.174;12.092;2022-11-15T07:04:38;60.35;;;36.63;;
29504;SDS011;16452;54.174;12.092;2022-11-15T07:07:04;59.22;;;36.17;;
29504;SDS011;16452;54.174;12.092;2022-11-15T07:09:29;65.93;;;36.95;;
29504;SDS011;16452;54.174;12.092;2022-11-15T07:11:55;67.85;;;37.28;;
29504;SDS011;16452;54.174;12.092;2022-11-15T07:14:21;63.00;;;38.72;;
29504;SDS011;16452;54.174;12.092;2022-11-15T07:16:46;62.03;;;36.85;;
29504;SDS011;16452;54.174;12.092;2022-11-15T07:19:12;66.47;;;38.60;;
29504;SDS011;16452;54.174;12.092;2022-11-15T07:21:38;61.05;;;37.05;;
29504;SDS011;16452;54.174;12.092;2022-11-15T07:24:04;66.95;;;38.28;;
29504;SDS011;16452;54.174;12.092;2022-11-15T07:26:30;63.13;;;36.53;;
29504;SDS011;16452;54.174;12.092;2022-11-15T07:28:55;59.83;;;36.67;;
29504;SDS011;16452;54.174;12.092;2022-11-15T07:31:21;58.28;;;35.63;;
29504;SDS011;16452;54.174;12.092;2022-11-15T07:33:47;55.33;;;35.83;;
29504;SDS011;16452;54.174;12.092;2022-11-15T07:36:13;56.75;;;35.00;;
29504;SDS011;16452;54.174;12.092;2022-11-15T07:38:38;58.15;;;34.38;;
29504;SDS011;16452;54.174;12.092;2022-11-15T07:41:04;58.53;;;35.55;;
29504;SDS011;16452;54.174;12.092;2022-11-15T07:43:31;55.42;;;34.97;;
29504;SDS011;16452;54.174;12.092;2022-11-15T07:46:07;59.97;;;35.92;;
29504;SDS011;16452;54.174;12.092;2022-11-15T07:48:34;56.95;;;35.85;;
29504;SDS011;16452;54.174;12.092;2022-11-15T07:51:01;62.80;;;37.20;;
29504;SDS011;16452;54.174;12.092;2022-11-15T07:53:27;59.95;;;35.83;;
29504;SDS011;16452;54.174;12.092;2022-11-15T07:55:53;57.78;;;36.80;;
29504;SDS011;16452;54.174;12.092;2022-11-15T07:58:19;57.13;;;35.15;;
29504;SDS011;16452;54.174;12.092;2022-11-15T08:00:44;55.22;;;35.08;;
29504;SDS011;16452;54.174;12.092;2022-11-15T08:03:12;61.05;;;34.88;;
29504;SDS011;16452;54.174;12.092;2022-11-15T08:05:40;55.20;;;34.47;;
29504;SDS011;16452;54.174;12.092;2022-11-15T08:08:08;54.00;;;34.50;;
29504;SDS011;16452;54.174;12.092;2022-11-15T08:10:36;53.63;;;33.78;;
29504;SDS011;16452;54.174;12.092;2022-11-15T08:13:09;60.15;;;34.33;;
29504;SDS011;16452;54.174;12.092;2022-11-15T08:15:36;55.88;;;34.78;;
29504;SDS011;16452;54.174;12.092;2022-11-15T08:18:04;57.88;;;34.05;;
29504;SDS011;16452;54.174;12.092;2022-11-15T08:20:41;54.53;;;34.22;;
29504;SDS011;16452;54.174;12.092;2022-11-15T08:23:09;57.35;;;34.10;;
29504;SDS011;16452;54.174;12.092;2022-11-15T08:25:37;53.70;;;34.30;;
29504;SDS011;16452;54.174;12.092;2022-11-15T08:28:04;54.13;;;33.97;;
29504;SDS011;16452;54.174;12.092;2022-11-15T08:30:35;55.08;;;33.92;;
29504;SDS011;16452;54.174;12.092;2022-11-15T08:33:04;58.85;;;34.97;;
29504;SDS011;16452;54.174;12.092;2022-11-15T08:35:29;57.10;;;34.30;;
29504;SDS011;16452;54.174;12.092;2022-11-15T08:37:55;57.63;;;34.78;;
29504;SDS011;16452;54.174;12.092;2022-11-15T08:40:21;57.75;;;36.40;;
29504;SDS011;16452;54.174;12.092;2022-11-15T08:42:47;53.42;;;33.60;;
29504;SDS011;16452;54.174;12.092;2022-11-15T08:45:13;52.20;;;33.58;;
29504;SDS011;16452;54.174;12.092;2022-11-15T08:47:40;51.08;;;33.90;;
29504;SDS011;16452;54.174;12.092;2022-11-15T08:50:06;56.00;;;33.45;;
29504;SDS011;16452;54.174;12.092;2022-11-15T08:52:32;59.08;;;33.80;;
29504;SDS011;16452;54.174;12.092;2022-11-15T08:54:58;59.25;;;35.78;;
29504;SDS011;16452;54.174;12.092;2022-11-15T08:57:24;53.47;;;34.65;;
29504;SDS011;16452;54.174;12.092;2022-11-15T08:59:54;52.35;;;33.83;;
29504;SDS011;16452;54.174;12.092;2022-11-15T09:02:20;55.28;;;34.33;;
29504;SDS011;16452;54.174;12.092;2022-11-15T09:04:52;50.83;;;32.08;;
29504;SDS011;16452;54.174;12.092;2022-11-15T09:07:18;54.20;;;33.25;;
29504;SDS011;16452;54.174;12.092;2022-11-15T09:09:43;51.47;;;31.95;;
29504;SDS011;16452;54.174;12.092;2022-11-15T09:12:09;54.15;;;33.40;;
29504;SDS011;16452;54.174;12.092;2022-11-15T09:14:35;55.35;;;34.83;;
29504;SDS011;16452;54.174;12.092;2022-11-15T09:17:01;53.17;;;35.03;;
29504;SDS011;16452;54.174;12.092;2022-11-15T09:19:28;55.42;;;34.00;;
29504;SDS011;16452;54.174;12.092;2022-11-15T09:21:54;62.00;;;33.88;;
29504;SDS011;16452;54.174;12.092;2022-11-15T09:24:20;52.13;;;32.28;;
29504;SDS011;16452;54.174;12.092;2022-11-15T09:26:46;50.50;;;32.42;;
29504;SDS011;16452;54.174;12.092;2022-11-15T09:29:14;52.70;;;33.45;;
29504;SDS011;16452;54.174;12.092;2022-11-15T09:31:40;55.70;;;33.67;;
29504;SDS011;16452;54.174;12.092;2022-11-15T09:34:06;56.88;;;34.85;;
29504;SDS011;16452;54.174;12.092;2022-11-15T09:36:32;49.88;;;32.08;;
29504;SDS011;16452;54.174;12.092;2022-11-15T09:38:58;52.92;;;31.00;;
29504;SDS011;16452;54.174;12.092;2022-11-15T09:41:38;50.78;;;32.35;;
29504;SDS011;16452;54.174;12.092;2022-11-15T09:44:47;49.38;;;31.48;;
29504;SDS011;16452;54.174;12.092;2022-11-15T09:50:38;46.55;;;31.30;;
29504;SDS011;16452;54.174;12.092;2022-11-15T09:53:39;47.78;;;30.17;;
29504;SDS011;16452;54.174;12.092;2022-11-15T09:58:59;48.63;;;30.48;;
29504;SDS011;16452;54.174;12.092;2022-11-15T10:04:39;49.58;;;32.08;;
29504;SDS011;16452;54.174;12.092;2022-11-15T10:07:22;48.47;;;29.70;;
29504;SDS011;16452;54.174;12.092;2022-11-15T10:10:17;49.55;;;31.50;;
29504;SDS011;16452;54.174;12.092;2022-11-15T10:13:04;46.80;;;31.25;;
29504;SDS011;16452;54.174;12.092;2022-11-15T10:15:37;51.15;;;31.45;;
29504;SDS011;16452;54.174;12.092;2022-11-15T10:20:57;47.83;;;31.20;;
29504;SDS011;16452;54.174;12.092;2022-11-15T10:23:28;51.35;;;30.55;;
29504;SDS011;16452;54.174;12.092;2022-11-15T10:25:55;49.35;;;30.10;;
29504;SDS011;16452;54.174;12.092;2022-11-15T10:28:30;48.15;;;31.38;;
29504;SDS011;16452;54.174;12.092;2022-11-15T10:30:57;43.47;;;30.00;;
29504;SDS011;16452;54.174;12.092;2022-11-15T10:41:13;42.03;;;28.60;;
29504;SDS011;16452;54.174;12.092;2022-11-15T10:49:21;43.00;;;30.20;;
29504;SDS011;16452;54.174;12.092;2022-11-15T10:51:56;39.15;;;27.80;;
29504;SDS011;16452;54.174;12.092;2022-11-15T10:55:21;40.55;;;28.52;;
29504;SDS011;16452;54.174;12.092;2022-11-15T10:57:38;41.88;;;28.77;;
29504;SDS011;16452;54.174;12.092;2022-11-15T11:00:26;41.75;;;29.23;;
29504;SDS011;16452;54.174;12.092;2022-11-15T11:05:48;41.08;;;28.27;;
29504;SDS011;16452;54.174;12.092;2022-11-15T11:09:02;40.55;;;28.65;;
29504;SDS011;16452;54.174;12.092;2022-11-15T11:11:44;43.60;;;28.90;;
29504;SDS011;16452;54.174;12.092;2022-11-15T11:14:22;41.92;;;29.63;;
29504;SDS011;16452;54.174;12.092;2022-11-15T11:20:37;41.13;;;29.10;;
29504;SDS011;16452;54.174;12.092;2022-11-15T11:35:09;53.30;;;36.60;;
29504;SDS011;16452;54.174;12.092;2022-11-15T11:37:46;43.42;;;28.65;;
29504;SDS011;16452;54.174;12.092;2022-11-15T11:46:58;38.45;;;26.85;;
29504;SDS011;16452;54.174;12.092;2022-11-15T11:52:24;38.65;;;24.92;;
29504;SDS011;16452;54.174;12.092;2022-11-15T11:58:16;33.53;;;24.30;;
29504;SDS011;16452;54.174;12.092;2022-11-15T12:01:07;39.70;;;27.45;;
29504;SDS011;16452;54.174;12.092;2022-11-15T12:03:40;37.90;;;26.10;;
29504;SDS011;16452;54.174;12.092;2022-11-15T12:08:53;38.03;;;26.55;;
29504;SDS011;16452;54.174;12.092;2022-11-15T12:11:47;37.05;;;26.00;;
29504;SDS011;16452;54.174;12.092;2022-11-15T12:17:12;40.85;;;26.83;;
29504;SDS011;16452;54.174;12.092;2022-11-15T12:19:40;39.05;;;25.98;;
29504;SDS011;16452;54.174;12.092;2022-11-15T12:22:12;43.33;;;27.65;;
29504;SDS011;16452;54.174;12.092;2022-11-15T12:25:29;36.42;;;26.73;;
29504;SDS011;16452;54.174;12.092;2022-11-15T12:31:02;39.53;;;28.40;;
29504;SDS011;16452;54.174;12.092;2022-11-15T12:34:02;43.30;;;30.45;;
29504;SDS011;16452;54.174;12.092;2022-11-15T12:36:50;41.20;;;28.92;;
29504;SDS011;16452;54.174;12.092;2022-11-15T12:39:17;42.88;;;28.80;;
29504;SDS011;16452;54.174;12.092;2022-11-15T12:41:44;41.20;;;27.90;;
29504;SDS011;16452;54.174;12.092;2022-11-15T12:47:04;42.55;;;29.23;;
29504;SDS011;16452;54.174;12.092;2022-11-15T12:49:47;40.08;;;27.90;;
29504;SDS011;16452;54.174;12.092;2022-11-15T12:52:14;42.45;;;29.75;;
29504;SDS011;16452;54.174;12.092;2022-11-15T12:59:48;42.95;;;29.65;;
29504;SDS011;16452;54.174;12.092;2022-11-15T13:10:28;43.78;;;30.00;;
29504;SDS011;16452;54.174;12.092;2022-11-15T13:15:34;46.85;;;30.10;;
29504;SDS011;16452;54.174;12.092;2022-11-15T13:18:38;47.97;;;29.58;;
29504;SDS011;16452;54.174;12.092;2022-11-15T13:21:18;48.63;;;33.47;;
29504;SDS011;16452;54.174;12.092;2022-11-15T13:24:10;42.85;;;27.45;;
29504;SDS011;16452;54.174;12.092;2022-11-15T13:26:40;43.97;;;29.15;;
29504;SDS011;16452;54.174;12.092;2022-11-15T13:29:14;47.20;;;30.85;;
29504;SDS011;16452;54.174;12.092;2022-11-15T13:31:44;47.70;;;30.23;;
29504;SDS011;16452;54.174;12.092;2022-11-15T13:34:25;45.63;;;30.73;;
29504;SDS011;16452;54.174;12.092;2022-11-15T13:36:58;45.63;;;29.92;;
29504;SDS011;16452;54.174;12.092;2022-11-15T13:39:31;47.35;;;30.17;;
29504;SDS011;16452;54.174;12.092;2022-11-15T13:42:01;45.97;;;29.80;;
29504;SDS011;16452;54.174;12.092;2022-11-15T13:44:28;45.20;;;30.27;;
29504;SDS011;16452;54.174;12.092;2022-11-15T13:47:04;47.25;;;29.00;;
29504;SDS011;16452;54.174;12.092;2022-11-15T13:49:40;47.65;;;30.35;;
29504;SDS011;16452;54.174;12.092;2022-11-15T13:52:07;46.05;;;31.08;;
29504;SDS011;16452;54.174;12.092;2022-11-15T13:57:36;46.78;;;29.20;;
29504;SDS011;16452;54.174;12.092;2022-11-15T14:03:21;46.53;;;29.63;;
29504;SDS011;16452;54.174;12.092;2022-11-15T14:06:07;47.65;;;29.20;;
29504;SDS011;16452;54.174;12.092;2022-11-15T14:11:34;50.22;;;29.35;;
29504;SDS011;16452;54.174;12.092;2022-11-15T14:16:43;45.47;;;30.23;;
29504;SDS011;16452;54.174;12.092;2022-11-15T14:19:12;46.70;;;30.85;;
29504;SDS011;16452;54.174;12.092;2022-11-15T14:24:42;48.08;;;30.45;;
29504;SDS011;16452;54.174;12.092;2022-11-15T14:27:24;47.72;;;31.08;;
29504;SDS011;16452;54.174;12.092;2022-11-15T14:29:53;49.03;;;30.20;;
29504;SDS011;16452;54.174;12.092;2022-11-15T14:35:18;51.88;;;30.58;;
29504;SDS011;16452;54.174;12.092;2022-11-15T14:37:46;47.58;;;29.70;;
29504;SDS011;16452;54.174;12.092;2022-11-15T14:40:14;53.35;;;30.35;;
29504;SDS011;16452;54.174;12.092;2022-11-15T14:42:44;52.28;;;31.80;;
29504;SDS011;16452;54.174;12.092;2022-11-15T14:45:12;48.38;;;31.00;;
29504;SDS011;16452;54.174;12.092;2022-11-15T14:47:47;47.60;;;31.67;;
29504;SDS011;16452;54.174;12.092;2022-11-15T14:50:14;48.08;;;28.80;;
29504;SDS011;16452;54.174;12.092;2022-11-15T14:52:44;49.40;;;29.63;;
29504;SDS011;16452;54.174;12.092;2022-11-15T14:55:18;46.67;;;29.77;;
29504;SDS011;16452;54.174;12.092;2022-11-15T14:58:00;47.97;;;29.73;;
29504;SDS011;16452;54.174;12.092;2022-11-15T15:00:30;48.15;;;30.92;;
29504;SDS011;16452;54.174;12.092;2022-11-15T15:02:56;47.88;;;29.38;;
29504;SDS011;16452;54.174;12.092;2022-11-15T15:05:24;48.08;;;30.27;;
29504;SDS011;16452;54.174;12.092;2022-11-15T15:08:02;49.75;;;30.13;;
29504;SDS011;16452;54.174;12.092;2022-11-15T15:10:36;52.72;;;30.95;;
29504;SDS011;16452;54.174;12.092;2022-11-15T15:13:05;55.30;;;30.33;;
29504;SDS011;16452;54.174;12.092;2022-11-15T15:15:47;48.00;;;28.42;;
29504;SDS011;16452;54.174;12.092;2022-11-15T15:18:14;46.65;;;28.30;;
29504;SDS011;16452;54.174;12.092;2022-11-15T15:20:41;50.97;;;29.98;;
29504;SDS011;16452;54.174;12.092;2022-11-15T15:23:14;50.08;;;30.45;;
29504;SDS011;16452;54.174;12.092;2022-11-15T15:25:43;53.08;;;30.30;;
29504;SDS011;16452;54.174;12.092;2022-11-15T15:28:10;52.88;;;31.30;;
29504;SDS011;16452;54.174;12.092;2022-11-15T15:30:36;54.90;;;31.50;;
29504;SDS011;16452;54.174;12.092;2022-11-15T15:33:02;52.22;;;32.22;;
29504;SDS011;16452;54.174;12.092;2022-11-15T15:35:32;50.65;;;30.95;;
29504;SDS011;16452;54.174;12.092;2022-11-15T15:37:59;46.85;;;27.63;;
29504;SDS011;16452;54.174;12.092;2022-11-15T15:40:27;49.88;;;30.27;;
29504;SDS011;16452;54.174;12.092;2022-11-15T15:42:55;49.60;;;30.27;;
29504;SDS011;16452;54.174;12.092;2022-11-15T15:45:20;55.25;;;30.50;;
29504;SDS011;16452;54.174;12.092;2022-11-15T15:47:46;50.83;;;29.20;;
29504;SDS011;16452;54.174;12.092;2022-11-15T15:52:55;57.17;;;30.60;;
29504;SDS011;16452;54.174;12.092;2022-11-15T15:55:24;54.75;;;30.92;;
29504;SDS011;16452;54.174;12.092;2022-11-15T15:57:50;57.58;;;32.83;;
29504;SDS011;16452;54.174;12.092;2022-11-15T16:00:17;55.28;;;32.10;;
29504;SDS011;16452;54.174;12.092;2022-11-15T16:02:44;59.40;;;33.08;;
29504;SDS011;16452;54.174;12.092;2022-11-15T16:05:10;57.58;;;31.85;;
29504;SDS011;16452;54.174;12.092;2022-11-15T16:07:37;66.20;;;33.17;;
29504;SDS011;16452;54.174;12.092;2022-11-15T16:10:18;58.97;;;33.08;;
29504;SDS011;16452;54.174;12.092;2022-11-15T16:12:54;62.38;;;33.90;;
29504;SDS011;16452;54.174;12.092;2022-11-15T16:15:21;62.88;;;34.05;;
29504;SDS011;16452;54.174;12.092;2022-11-15T16:17:50;68.97;;;36.78;;
29504;SDS011;16452;54.174;12.092;2022-11-15T16:20:32;68.78;;;35.42;;
29504;SDS011;16452;54.174;12.092;2022-11-15T16:23:10;70.55;;;35.58;;
29504;SDS011;16452;54.174;12.092;2022-11-15T16:25:43;72.80;;;37.10;;
29504;SDS011;16452;54.174;12.092;2022-11-15T16:28:25;70.30;;;36.75;;
29504;SDS011;16452;54.174;12.092;2022-11-15T16:31:04;72.05;;;37.25;;
29504;SDS011;16452;54.174;12.092;2022-11-15T16:33:33;74.07;;;37.78;;
29504;SDS011;16452;54.174;12.092;2022-11-15T16:36:00;74.00;;;35.95;;
29504;SDS011;16452;54.174;12.092;2022-11-15T16:38:26;76.43;;;38.22;;
29504;SDS011;16452;54.174;12.092;2022-11-15T16:40:52;73.07;;;38.05;;
29504;SDS011;16452;54.174;12.092;2022-11-15T16:43:18;72.28;;;36.75;;
29504;SDS011;16452;54.174;12.092;2022-11-15T16:45:44;76.30;;;37.83;;